Time;durP1;ratioP1;P1;durP2;ratioP2;P2;SDS_P1;SDS_P2;PMS_P1;PMS_P2;Temp;Humidity;BMP_temperature;BMP_pressure;BME280_temperature;BME280_humidity;BME280_pressure;Samples;Min_cycle;Max_cycle;Signal;HPM_P1;HPM_P2
2022/04/11 00:00:47;;;;;;;14.20;12.73;;;;;;;1.96;99.76;101369.78;5113946;28;20580;-68
2022/04/11 00:03:13;;;;;;;13.20;12.00;;;;;;;1.92;100.00;101358.56;5114161;28;20222;-68
2022/04/11 00:05:40;;;;;;;13.03;11.07;;;;;;;1.90;100.00;101365.44;5113742;28;20265;-68
2022/04/11 00:08:06;;;;;;;12.27;11.00;;;;;;;1.85;100.00;101357.66;5114060;28;20718;-68
2022/04/11 00:10:33;;;;;;;14.93;11.87;;;;;;;1.87;100.00;101358.56;5113769;28;20189;-68
2022/04/11 00:13:03;;;;;;;12.33;11.00;;;;;;;1.85;100.00;101359.38;5113924;28;20205;-68
2022/04/11 00:15:34;;;;;;;14.37;12.37;;;;;;;1.79;100.00;101361.97;5113952;28;20693;-68
2022/04/11 00:18:04;;;;;;;15.90;12.50;;;;;;;1.79;100.00;101360.22;5113707;28;20234;-68
2022/04/11 00:20:30;;;;;;;19.87;11.73;;;;;;;1.82;100.00;101364.53;5113657;28;20186;-68
2022/04/11 00:22:57;;;;;;;14.47;12.37;;;;;;;1.82;100.00;101355.06;5113903;28;20238;-68
2022/04/11 00:25:24;;;;;;;12.53;11.17;;;;;;;1.77;99.99;101356.75;5113568;28;20205;-68
2022/04/11 00:27:52;;;;;;;17.40;12.03;;;;;;;1.77;100.00;101354.19;5114092;28;20267;-68
2022/04/11 00:30:19;;;;;;;12.53;11.03;;;;;;;1.70;100.00;101349.84;5113523;28;20654;-68
2022/04/11 00:32:47;;;;;;;12.53;11.33;;;;;;;1.75;99.98;101350.72;5113749;28;20204;-68
2022/04/11 00:35:14;;;;;;;16.60;11.63;;;;;;;1.76;99.86;101355.03;5113737;28;20225;-68
2022/04/11 00:37:41;;;;;;;12.77;11.47;;;;;;;1.70;100.00;101357.59;5095234;28;20193;-68
2022/04/11 00:40:09;;;;;;;13.30;10.50;;;;;;;1.68;100.00;101356.72;5113498;28;20181;-68
2022/04/11 00:42:35;;;;;;;13.77;10.83;;;;;;;1.69;99.97;101355.84;5113479;28;20186;-68
2022/04/11 00:45:03;;;;;;;11.90;10.70;;;;;;;1.72;99.48;101349.88;5097802;28;20209;-68
2022/04/11 00:47:30;;;;;;;12.07;10.90;;;;;;;1.65;99.42;101349.84;5118004;28;20189;-68
2022/04/11 00:50:04;;;;;;;11.70;10.73;;;;;;;1.68;99.44;101348.13;5099170;28;20227;-68
2022/04/11 00:52:33;;;;;;;12.37;11.03;;;;;;;1.64;99.22;101347.22;5099068;28;20209;-68
2022/04/11 00:55:00;;;;;;;12.67;10.37;;;;;;;1.65;99.22;101343.81;5098878;28;20213;-68
2022/04/11 00:57:26;;;;;;;10.83;9.93;;;;;;;1.57;99.95;101335.13;5117313;28;20235;-68
2022/04/11 00:59:53;;;;;;;13.07;11.40;;;;;;;1.61;100.00;101342.91;5117243;28;20188;-68
2022/04/11 01:02:19;;;;;;;18.70;11.20;;;;;;;1.64;100.00;101342.06;5117215;28;20264;-68
2022/04/11 01:04:46;;;;;;;14.17;10.83;;;;;;;1.58;100.00;101336.91;5098858;28;20213;-68
2022/04/11 01:07:15;;;;;;;11.73;10.63;;;;;;;1.63;100.00;101336.03;5117392;28;20185;-68
2022/04/11 01:09:42;;;;;;;11.53;10.60;;;;;;;1.61;100.00;101334.31;5098821;28;20200;-68
2022/04/11 01:12:11;;;;;;;14.43;10.10;;;;;;;1.64;100.00;101337.78;5098672;28;20193;-68
2022/04/11 01:14:38;;;;;;;13.23;10.87;;;;;;;1.63;100.00;101333.47;5116913;28;20291;-68
2022/04/11 01:17:04;;;;;;;12.33;9.90;;;;;;;1.67;100.00;101328.31;5098681;28;20192;-68
2022/04/11 01:19:31;;;;;;;11.70;9.77;;;;;;;1.59;100.00;101328.28;5116884;28;20242;-68
2022/04/11 01:21:58;;;;;;;13.47;10.17;;;;;;;1.65;100.00;101324.03;5098569;28;20213;-68
2022/04/11 01:24:25;;;;;;;11.20;10.10;;;;;;;1.61;100.00;101318.84;5098393;28;20667;-68
2022/04/11 01:26:55;;;;;;;11.37;10.00;;;;;;;1.59;100.00;101318.84;5098476;28;20218;-68
2022/04/11 01:29:22;;;;;;;11.83;9.60;;;;;;;1.57;100.00;101317.06;5098465;28;20283;-68
2022/04/11 01:31:49;;;;;;;10.63;9.23;;;;;;;1.57;100.00;101320.53;5098416;28;20184;-68
2022/04/11 01:34:15;;;;;;;11.27;10.10;;;;;;;1.57;100.00;101315.38;5098281;28;20262;-68
2022/04/11 01:36:42;;;;;;;15.63;10.17;;;;;;;1.64;100.00;101305.94;5116482;28;20201;-68
2022/04/11 01:39:11;;;;;;;11.43;9.97;;;;;;;1.68;100.00;101311.97;5098238;28;20189;-67
2022/04/11 01:41:37;;;;;;;13.07;11.07;;;;;;;1.63;100.00;101309.38;5098179;28;20220;-67
2022/04/11 01:44:04;;;;;;;10.63;9.77;;;;;;;1.63;100.00;101304.22;5098133;28;20177;-68
2022/04/11 01:46:31;;;;;;;10.73;9.80;;;;;;;1.56;100.00;101307.63;5097958;28;20212;-68
2022/04/11 01:49:07;;;;;;;15.67;10.27;;;;;;;1.55;100.00;101306.75;5098893;28;20185;-68
2022/04/11 01:51:33;;;;;;;10.73;9.83;;;;;;;1.51;100.00;101299.88;5098023;28;20253;-68
2022/04/11 01:54:00;;;;;;;10.60;9.70;;;;;;;1.60;100.00;101304.22;5097929;28;20212;-68
2022/04/11 01:56:26;;;;;;;10.57;9.53;;;;;;;1.57;100.00;101301.59;5096879;28;20636;-68
2022/04/11 01:58:53;;;;;;;11.47;10.33;;;;;;;1.59;100.00;101300.75;5097834;28;20678;-68
2022/04/11 02:01:19;;;;;;;12.40;8.97;;;;;;;1.61;100.00;101303.34;5098590;28;20193;-68
2022/04/11 02:03:46;;;;;;;10.30;9.37;;;;;;;1.59;100.00;101295.59;5097722;28;20655;-68
2022/04/11 02:06:12;;;;;;;10.50;9.70;;;;;;;1.59;100.00;101287.84;5097611;28;20240;-68
2022/04/11 02:08:39;;;;;;;11.20;10.13;;;;;;;1.54;100.00;101291.28;5097690;28;20189;-68
2022/04/11 02:11:10;;;;;;;14.73;9.43;;;;;;;1.57;100.00;101294.75;5098716;28;20177;-68
2022/04/11 02:13:38;;;;;;;11.33;10.27;;;;;;;1.55;100.00;101296.44;5097793;28;20300;-68
2022/04/11 02:16:04;;;;;;;13.33;9.33;;;;;;;1.50;100.00;101298.16;5116028;28;20209;-68
2022/04/11 02:18:31;;;;;;;10.80;9.07;;;;;;;1.52;100.00;101283.53;5097425;28;20720;-68
2022/04/11 02:20:58;;;;;;;11.53;9.93;;;;;;;1.52;100.00;101286.09;5097480;28;20227;-68
2022/04/11 02:23:25;;;;;;;11.40;9.47;;;;;;;1.50;100.00;101281.78;5115658;28;20550;-68
2022/04/11 02:25:52;;;;;;;9.27;8.87;;;;;;;1.51;100.00;101280.94;5115546;28;20625;-68
2022/04/11 02:28:19;;;;;;;15.87;9.40;;;;;;;1.52;100.00;101278.38;5097313;28;20192;-68
2022/04/11 02:30:45;;;;;;;11.00;10.17;;;;;;;1.57;100.00;101284.41;5097193;28;20195;-68
2022/04/11 02:33:12;;;;;;;20.63;10.30;;;;;;;1.54;100.00;101276.66;5097197;28;20281;-68
2022/04/11 02:35:39;;;;;;;8.93;8.37;;;;;;;1.55;100.00;101282.66;5097130;28;20258;-67
2022/04/11 02:38:06;;;;;;;9.60;8.87;;;;;;;1.54;100.00;101278.38;5097091;28;20221;-67
2022/04/11 02:40:33;;;;;;;10.47;9.40;;;;;;;1.60;100.00;101279.25;5097957;28;20195;-68
2022/04/11 02:43:13;;;;;;;12.33;9.10;;;;;;;1.58;100.00;101277.53;5097280;28;20185;-68
2022/04/11 02:45:53;;;;;;;9.80;8.83;;;;;;;1.57;100.00;101283.53;5096874;28;20766;-68
2022/04/11 02:48:27;;;;;;;11.50;10.30;;;;;;;1.59;100.00;101281.84;5097120;28;20188;-68
2022/04/11 02:51:03;;;;;;;19.17;8.87;;;;;;;1.55;100.00;101290.41;5097443;28;20528;-68
2022/04/11 02:53:38;;;;;;;10.40;9.40;;;;;;;1.53;100.00;101290.41;5097265;28;20204;-68
2022/04/11 02:56:04;;;;;;;9.17;8.40;;;;;;;1.56;100.00;101294.72;5096529;28;20799;-68
2022/04/11 02:58:31;;;;;;;9.33;8.77;;;;;;;1.55;100.00;101280.94;5096678;28;20220;-68
2022/04/11 03:00:58;;;;;;;10.63;9.77;;;;;;;1.55;100.00;101293.00;5096667;28;20197;-68
2022/04/11 03:03:27;;;;;;;10.43;8.80;;;;;;;1.56;100.00;101299.88;5096601;28;20707;-68
2022/04/11 03:05:54;;;;;;;8.43;8.03;;;;;;;1.56;100.00;101299.88;5096514;28;20215;-68
2022/04/11 03:08:20;;;;;;;12.10;8.90;;;;;;;1.64;100.00;101303.34;5096673;28;20596;-68
2022/04/11 03:10:47;;;;;;;8.23;7.67;;;;;;;1.57;100.00;101299.91;5096402;28;20200;-68
2022/04/11 03:13:13;;;;;;;9.57;8.90;;;;;;;1.60;100.00;101299.03;5096669;28;20213;-68
2022/04/11 03:15:40;;;;;;;8.37;7.97;;;;;;;1.58;100.00;101296.47;5096286;28;20212;-68
2022/04/11 03:18:07;;;;;;;11.67;8.37;;;;;;;1.59;99.67;101299.91;5096366;28;20192;-68
2022/04/11 03:20:36;;;;;;;8.97;8.37;;;;;;;1.61;99.41;101290.44;5096305;28;20666;-68
2022/04/11 03:23:03;;;;;;;9.27;8.60;;;;;;;1.55;99.28;101295.56;5096289;28;20200;-68
2022/04/11 03:25:36;;;;;;;8.70;8.07;;;;;;;1.59;98.66;101297.31;5096206;28;20217;-68
2022/04/11 03:28:04;;;;;;;9.57;8.87;;;;;;;1.59;98.25;101297.31;5096152;28;20703;-68
2022/04/11 03:30:33;;;;;;;9.33;8.80;;;;;;;1.63;98.50;101283.56;5096375;28;20684;-68
2022/04/11 03:32:59;;;;;;;9.30;8.50;;;;;;;1.58;98.08;101282.69;5114205;28;20212;-68
2022/04/11 03:35:29;;;;;;;12.03;9.57;;;;;;;1.58;98.25;101286.16;5095910;28;20201;-68
2022/04/11 03:37:56;;;;;;;10.20;9.40;;;;;;;1.59;98.14;101279.25;5096217;28;20675;-68
2022/04/11 03:40:24;;;;;;;9.07;8.07;;;;;;;1.64;97.88;101274.97;5096123;28;20591;-68
2022/04/11 03:42:53;;;;;;;10.90;9.90;;;;;;;1.71;97.54;101284.44;5096744;28;20605;-68
2022/04/11 03:45:20;;;;;;;9.47;8.67;;;;;;;1.73;97.71;101280.19;5096338;28;20205;-68
2022/04/11 03:47:48;;;;;;;10.93;8.10;;;;;;;1.65;98.41;101287.91;5096698;28;20222;-68
2022/04/11 03:50:18;;;;;;;14.57;8.10;;;;;;;1.67;98.47;101280.16;5095682;28;20189;-68
2022/04/11 03:52:49;;;;;;;8.80;8.20;;;;;;;1.67;98.81;101281.88;5096221;28;20207;-68
2022/04/11 03:55:15;;;;;;;9.17;8.60;;;;;;;1.60;99.05;101287.00;5095913;28;20711;-68
2022/04/11 03:57:45;;;;;;;8.53;8.03;;;;;;;1.59;99.26;101284.41;5096045;28;20189;-68
2022/04/11 04:00:13;;;;;;;9.13;8.53;;;;;;;1.56;99.45;101281.81;5095604;28;20280;-68
2022/04/11 04:03:11;;;;;;;13.50;8.60;;;;;;;1.59;99.63;101281.84;5095667;28;20234;-68
2022/04/11 04:05:44;;;;;;;12.13;10.47;;;;;;;1.59;99.10;101274.09;5095606;28;20647;-68
2022/04/11 04:08:13;;;;;;;11.73;9.17;;;;;;;1.52;99.36;101274.94;5095548;28;20206;-68
2022/04/11 04:10:50;;;;;;;8.47;7.73;;;;;;;1.50;99.31;101274.94;5095810;28;20192;-68
2022/04/11 04:13:16;;;;;;;8.37;7.83;;;;;;;1.45;99.99;101266.28;5096260;28;20217;-68
2022/04/11 04:15:45;;;;;;;10.07;9.10;;;;;;;1.42;99.81;101273.13;5095331;28;20582;-68
2022/04/11 04:18:12;;;;;;;9.37;8.77;;;;;;;1.47;99.64;101268.88;5095808;28;20198;-68
2022/04/11 04:20:40;;;;;;;10.53;9.70;;;;;;;1.39;99.53;101268.84;5101953;28;20200;-68
2022/04/11 04:23:06;;;;;;;10.40;9.33;;;;;;;1.28;99.84;101271.34;5102185;28;20218;-68
2022/04/11 04:25:35;;;;;;;9.40;8.73;;;;;;;1.26;99.92;101269.63;5102057;28;20212;-68
2022/04/11 04:28:03;;;;;;;9.87;9.17;;;;;;;1.32;99.79;101269.66;5102086;28;20279;-67
2022/04/11 04:30:32;;;;;;;9.43;8.77;;;;;;;1.31;100.00;101271.38;5102725;28;20254;-67
2022/04/11 04:32:59;;;;;;;10.03;9.53;;;;;;;1.30;99.60;101272.25;5102236;28;20194;-67
2022/04/11 04:35:27;;;;;;;9.83;9.13;;;;;;;1.29;99.94;101277.41;5120265;28;20222;-67
2022/04/11 04:37:56;;;;;;;10.90;9.93;;;;;;;1.33;99.90;101271.38;5102127;28;20237;-67
2022/04/11 04:40:25;;;;;;;14.20;9.43;;;;;;;1.29;99.76;101272.22;5102136;28;20189;-67
2022/04/11 04:42:53;;;;;;;9.57;8.67;;;;;;;1.33;99.57;101276.53;5102298;28;20696;-67
2022/04/11 04:45:20;;;;;;;10.90;8.87;;;;;;;1.40;99.07;101272.28;5101848;28;20235;-67
2022/04/11 04:48:08;;;;;;;9.23;8.30;;;;;;;1.37;98.94;101279.16;5102532;28;20189;-67
2022/04/11 04:50:36;;;;;;;9.47;8.57;;;;;;;1.35;98.83;101274.81;5102237;28;20692;-67
2022/04/11 04:53:06;;;;;;;8.77;8.27;;;;;;;1.33;98.50;101281.69;5101864;28;20182;-67
2022/04/11 04:55:33;;;;;;;9.43;8.80;;;;;;;1.30;98.65;101274.81;5101770;28;20224;-67
2022/04/11 04:57:59;;;;;;;10.23;9.13;;;;;;;1.24;98.30;101282.50;5101820;28;20193;-67
2022/04/11 05:00:26;;;;;;;11.20;10.07;;;;;;;1.26;98.52;101274.78;5120497;28;20597;-67
2022/04/11 05:02:54;;;;;;;10.30;9.43;;;;;;;1.25;98.50;101267.91;5101729;28;20658;-67
2022/04/11 05:05:23;;;;;;;14.33;9.43;;;;;;;1.24;98.33;101274.78;5101589;28;20290;-68
2022/04/11 05:07:53;;;;;;;15.57;9.27;;;;;;;1.15;98.49;101273.88;5102396;28;20185;-68
2022/04/11 05:10:23;;;;;;;13.03;9.40;;;;;;;1.25;97.98;101268.75;5101726;28;20624;-68
2022/04/11 05:12:51;;;;;;;10.47;9.43;;;;;;;1.23;97.91;101270.47;5101748;28;20189;-68
2022/04/11 05:15:19;;;;;;;9.67;9.07;;;;;;;1.20;98.09;101264.41;5101483;28;20310;-68
2022/04/11 05:17:51;;;;;;;17.17;9.53;;;;;;;1.16;98.18;101263.56;5102011;28;20197;-68
2022/04/11 05:20:19;;;;;;;10.10;8.97;;;;;;;1.18;98.02;101266.13;5102402;28;20192;-68
2022/04/11 05:22:46;;;;;;;16.00;9.13;;;;;;;1.19;97.97;101265.28;5101425;28;20191;-68
2022/04/11 05:25:13;;;;;;;9.97;9.10;;;;;;;1.16;97.75;101268.72;5101531;28;20207;-68
2022/04/11 05:27:40;;;;;;;13.13;9.90;;;;;;;1.15;97.69;101268.72;5119856;28;20708;-68
2022/04/11 05:30:07;;;;;;;12.37;9.23;;;;;;;1.14;97.98;101272.97;5118383;28;20195;-68
2022/04/11 05:32:35;;;;;;;9.73;8.77;;;;;;;1.13;97.92;101266.09;5098163;28;20192;-68
2022/04/11 05:35:03;;;;;;;13.03;9.70;;;;;;;1.16;97.78;101273.00;5098076;28;20760;-68
2022/04/11 05:37:29;;;;;;;10.83;9.43;;;;;;;1.15;98.15;101272.16;5116829;28;20218;-68
2022/04/11 05:39:56;;;;;;;17.47;10.50;;;;;;;1.18;98.27;101268.72;5098183;28;20203;-68
2022/04/11 05:42:24;;;;;;;14.87;10.20;;;;;;;1.26;98.33;101275.63;5098796;28;20238;-68
2022/04/11 05:44:51;;;;;;;10.53;9.50;;;;;;;1.38;98.07;101269.69;5098101;28;20282;-68
2022/04/11 05:47:18;;;;;;;9.90;9.13;;;;;;;1.45;98.63;101265.44;5116218;28;20234;-68
2022/04/11 05:49:50;;;;;;;20.07;10.03;;;;;;;1.54;98.51;101266.31;5098857;28;20204;-68
2022/04/11 05:52:18;;;;;;;17.27;10.13;;;;;;;1.63;98.84;101253.44;5097925;28;20189;-68
2022/04/11 05:54:45;;;;;;;14.33;10.07;;;;;;;1.75;99.01;101262.09;5097725;28;20221;-68
2022/04/11 05:57:12;;;;;;;11.43;10.33;;;;;;;1.91;99.27;101248.38;5097862;28;20188;-68
2022/04/11 05:59:40;;;;;;;21.30;10.40;;;;;;;2.11;99.57;101256.19;5098072;28;20658;-68
2022/04/11 06:02:10;;;;;;;13.80;10.90;;;;;;;2.29;99.23;101250.19;5098315;28;20238;-68
2022/04/11 06:04:38;;;;;;;14.17;10.57;;;;;;;2.42;99.63;101246.75;5097734;28;20189;-68
2022/04/11 06:07:05;;;;;;;13.47;10.23;;;;;;;2.61;99.84;101247.63;5098536;28;20597;-68
2022/04/11 06:09:33;;;;;;;15.20;10.70;;;;;;;2.72;99.70;101251.06;5097642;28;20574;-68
2022/04/11 06:12:00;;;;;;;17.67;10.57;;;;;;;2.83;99.38;101244.16;5097631;28;20189;-68
2022/04/11 06:14:30;;;;;;;13.27;11.03;;;;;;;2.90;98.44;101257.94;5097604;28;20683;-68
2022/04/11 06:16:58;;;;;;;22.97;10.80;;;;;;;2.95;97.82;101256.22;5116223;28;20181;-68
2022/04/11 06:19:24;;;;;;;11.07;10.00;;;;;;;3.07;97.85;101257.91;5097491;28;20196;-68
2022/04/11 06:21:52;;;;;;;13.77;10.97;;;;;;;3.17;97.35;101263.06;5098108;28;20558;-68
2022/04/11 06:24:18;;;;;;;12.57;10.73;;;;;;;3.40;95.95;101262.16;5097311;28;20194;-68
2022/04/11 06:26:45;;;;;;;12.33;10.83;;;;;;;3.55;94.15;101260.34;5097326;28;20188;-68
2022/04/11 06:29:12;;;;;;;18.17;10.83;;;;;;;3.79;92.80;101266.31;5097498;28;20724;-68
2022/04/11 06:31:39;;;;;;;11.73;9.97;;;;;;;4.02;92.02;101254.09;5097166;28;20181;-68
2022/04/11 06:34:15;;;;;;;12.17;10.70;;;;;;;4.29;90.00;101250.47;5097603;28;20228;-68
2022/04/11 06:36:41;;;;;;;13.90;11.37;;;;;;;4.54;89.44;101256.34;5096997;28;20217;-68
2022/04/11 06:39:09;;;;;;;12.53;11.10;;;;;;;4.77;88.47;101255.28;5096981;28;20193;-68
2022/04/11 06:41:40;;;;;;;12.33;11.07;;;;;;;5.10;86.74;101260.16;5096992;28;20311;-68
2022/04/11 06:44:08;;;;;;;19.97;11.53;;;;;;;5.32;83.95;101262.53;5098092;28;20177;-68
2022/04/11 06:46:48;;;;;;;16.10;11.30;;;;;;;5.71;80.72;101259.44;5097493;28;20191;-68
2022/04/11 06:49:15;;;;;;;11.37;10.17;;;;;;;5.75;81.98;101260.28;5096778;28;20555;-68
2022/04/11 06:51:42;;;;;;;11.00;9.97;;;;;;;5.91;80.48;101261.81;5096753;28;20654;-68
2022/04/11 06:54:08;;;;;;;10.67;9.90;;;;;;;6.07;79.37;101259.88;5114954;28;20211;-68
2022/04/11 06:56:35;;;;;;;11.03;9.70;;;;;;;6.29;76.73;101263.06;5114730;28;20241;-68
2022/04/11 06:59:01;;;;;;;15.07;9.47;;;;;;;6.37;76.69;101258.59;5114987;28;20206;-68
2022/04/11 07:01:28;;;;;;;18.97;9.17;;;;;;;6.48;77.02;101263.59;5115205;28;20185;-68
2022/04/11 07:03:54;;;;;;;10.00;8.97;;;;;;;6.63;76.06;101271.16;5115141;28;20255;-68
2022/04/11 07:06:21;;;;;;;8.40;7.90;;;;;;;6.91;76.93;101274.16;5115041;28;20208;-68
2022/04/11 07:08:47;;;;;;;6.87;6.67;;;;;;;7.13;74.42;101279.84;5115067;28;20188;-68
2022/04/11 07:11:13;;;;;;;8.43;8.03;;;;;;;7.36;74.26;101277.72;5114734;28;20651;-68
2022/04/11 07:13:40;;;;;;;7.87;7.23;;;;;;;7.62;70.96;101276.31;5114629;28;20224;-68
2022/04/11 07:16:06;;;;;;;7.47;6.83;;;;;;;7.81;70.14;101272.47;5114646;28;20194;-69
2022/04/11 07:18:35;;;;;;;6.50;6.30;;;;;;;7.94;68.28;101265.25;5115112;28;20191;-69
2022/04/11 07:21:02;;;;;;;7.93;6.90;;;;;;;8.07;68.93;101269.28;5114514;28;20193;-69
2022/04/11 07:23:28;;;;;;;5.73;5.53;;;;;;;8.20;68.28;101267.25;5114498;28;20218;-69
2022/04/11 07:25:55;;;;;;;5.50;5.50;;;;;;;8.34;65.43;101270.41;5114681;28;20605;-69
2022/04/11 07:28:22;;;;;;;4.90;4.90;;;;;;;8.41;65.04;101273.75;5114837;28;20242;-69
2022/04/11 07:30:48;;;;;;;5.50;5.10;;;;;;;8.50;64.47;101270.94;5114370;28;20216;-69
2022/04/11 07:33:15;;;;;;;6.53;5.03;;;;;;;8.64;62.34;101270.59;5114846;28;20188;-69
2022/04/11 07:35:42;;;;;;;5.37;5.17;;;;;;;8.85;65.29;101264.00;5114348;28;20606;-69
2022/04/11 07:38:08;;;;;;;5.33;4.97;;;;;;;8.99;64.01;101264.50;5114197;28;20234;-69
2022/04/11 07:40:34;;;;;;;5.20;4.97;;;;;;;9.23;64.91;101268.25;5114219;28;20594;-69
2022/04/11 07:43:01;;;;;;;5.20;5.10;;;;;;;9.35;63.14;101262.66;5114406;28;20177;-69
2022/04/11 07:45:28;;;;;;;7.17;6.27;;;;;;;9.56;62.81;101262.06;5114056;28;20198;-69
2022/04/11 07:47:54;;;;;;;5.93;5.30;;;;;;;9.62;60.20;101261.88;5114084;28;20187;-69
2022/04/11 07:50:21;;;;;;;5.57;5.13;;;;;;;9.75;58.29;101261.53;5114054;28;20192;-69
2022/04/11 07:52:48;;;;;;;4.30;4.10;;;;;;;9.87;59.60;101266.44;5114190;28;20247;-69
2022/04/11 07:55:19;;;;;;;4.57;4.37;;;;;;;9.95;59.11;101261.81;5113382;28;20784;-69
2022/04/11 07:57:46;;;;;;;5.27;5.17;;;;;;;10.04;58.04;101269.38;5114168;28;20181;-69
2022/04/11 08:00:21;;;;;;;4.87;4.70;;;;;;;9.98;57.37;101261.72;5114191;28;20176;-69
2022/04/11 08:02:55;;;;;;;4.67;4.47;;;;;;;10.10;57.72;101274.44;5113898;28;20210;-69
2022/04/11 08:05:23;;;;;;;4.27;4.00;;;;;;;10.20;59.72;101264.53;5113918;28;20299;-69
2022/04/11 08:07:50;;;;;;;5.07;3.87;;;;;;;10.43;58.58;101264.72;5113773;28;20185;-69
2022/04/11 08:10:17;;;;;;;4.23;4.23;;;;;;;10.59;59.98;101259.00;5114040;28;20184;-69
2022/04/11 08:12:54;;;;;;;5.53;5.00;;;;;;;10.88;56.83;101264.09;5113690;28;20651;-69
2022/04/11 08:15:22;;;;;;;4.20;3.90;;;;;;;10.94;57.94;101268.28;5114103;28;20215;-69
2022/04/11 08:17:49;;;;;;;5.77;5.37;;;;;;;11.07;57.02;101269.56;5113965;28;20177;-69
2022/04/11 08:20:15;;;;;;;4.00;4.00;;;;;;;11.12;54.60;101277.28;5113660;28;20604;-69
2022/04/11 08:22:44;;;;;;;6.37;5.90;;;;;;;11.09;52.97;101269.53;5113894;28;20616;-69
2022/04/11 08:25:10;;;;;;;4.53;4.43;;;;;;;11.13;53.92;101258.88;5113710;28;20197;-69
2022/04/11 08:27:37;;;;;;;4.53;4.43;;;;;;;11.22;53.64;101252.47;5113572;28;20242;-69
2022/04/11 08:30:04;;;;;;;4.47;4.33;;;;;;;11.42;54.31;101249.13;5113624;28;20207;-69
2022/04/11 08:32:48;;;;;;;4.03;3.97;;;;;;;11.35;53.18;101253.72;5095478;28;20218;-69
2022/04/11 08:35:16;;;;;;;4.50;4.40;;;;;;;11.37;54.31;101253.69;5114393;28;20593;-70
2022/04/11 08:37:42;;;;;;;4.33;4.23;;;;;;;11.32;52.90;101250.38;5113503;28;20181;-69
2022/04/11 08:40:13;;;;;;;4.87;4.83;;;;;;;11.53;53.07;101252.22;5114020;28;20185;-69
2022/04/11 08:42:42;;;;;;;4.10;4.00;;;;;;;11.82;52.31;101248.53;5113651;28;20189;-69
2022/04/11 08:45:13;;;;;;;4.67;3.60;;;;;;;12.00;53.62;101241.72;5113690;28;20242;-69
2022/04/11 08:47:41;;;;;;;5.37;3.43;;;;;;;12.04;52.03;101245.94;5113729;28;20185;-69
2022/04/11 08:50:08;;;;;;;3.57;3.47;;;;;;;12.05;52.90;101230.13;5113355;28;20198;-69
2022/04/11 08:52:36;;;;;;;4.30;4.00;;;;;;;12.21;51.85;101234.78;5113686;28;20232;-70
2022/04/11 08:55:03;;;;;;;6.13;3.63;;;;;;;12.08;51.83;101231.78;5113067;28;20270;-70
2022/04/11 08:57:30;;;;;;;5.23;4.70;;;;;;;12.39;51.97;101228.78;5113872;28;20181;-70
2022/04/11 09:00:11;;;;;;;3.67;3.67;;;;;;;12.49;53.38;101229.25;5113310;28;20181;-70
2022/04/11 09:02:39;;;;;;;4.43;4.23;;;;;;;12.58;51.33;101229.75;5113513;28;20245;-69
2022/04/11 09:05:06;;;;;;;5.37;4.83;;;;;;;12.59;50.60;101222.72;5114248;28;20208;-70
2022/04/11 09:07:46;;;;;;;4.63;4.43;;;;;;;12.83;52.73;101224.31;5117117;28;20189;-70
2022/04/11 09:10:18;;;;;;;3.23;3.03;;;;;;;13.05;49.86;101236.53;5117432;28;20174;-69
2022/04/11 09:12:47;;;;;;;4.60;4.17;;;;;;;13.24;51.80;101228.75;5117340;28;20534;-69
2022/04/11 09:15:14;;;;;;;5.10;4.60;;;;;;;13.35;48.96;101239.63;5117100;28;20220;-70
2022/04/11 09:17:42;;;;;;;4.03;3.77;;;;;;;13.32;47.75;101231.88;5117274;28;20574;-70
2022/04/11 09:20:17;;;;;;;3.23;3.17;;;;;;;13.26;45.63;101227.75;5117529;28;20533;-70
2022/04/11 09:22:44;;;;;;;3.50;3.40;;;;;;;13.19;48.22;101221.88;5117232;28;20548;-70
2022/04/11 09:25:16;;;;;;;4.27;4.10;;;;;;;13.29;46.16;101219.75;5116754;28;20641;-70
2022/04/11 09:27:44;;;;;;;3.70;3.40;;;;;;;13.38;48.14;101216.69;5117306;28;20173;-69
2022/04/11 09:30:28;;;;;;;3.63;3.47;;;;;;;13.31;46.98;101215.25;5116704;28;20234;-69
2022/04/11 09:32:57;;;;;;;4.00;3.80;;;;;;;13.54;46.84;101202.84;5116863;28;20226;-69
2022/04/11 09:35:26;;;;;;;3.93;3.43;;;;;;;13.77;46.86;101214.00;5116735;28;20602;-70
2022/04/11 09:38:07;;;;;;;4.77;4.57;;;;;;;13.66;44.73;101203.13;5116837;28;20234;-69
2022/04/11 09:40:39;;;;;;;3.20;3.07;;;;;;;13.81;44.07;101213.88;5116816;28;20181;-69
2022/04/11 09:43:05;;;;;;;3.93;3.83;;;;;;;13.88;46.00;101200.34;5116452;28;20234;-69
2022/04/11 09:45:32;;;;;;;4.80;3.90;;;;;;;14.03;46.32;101198.75;5116348;28;20205;-70
2022/04/11 09:48:04;;;;;;;3.20;3.20;;;;;;;14.37;46.43;101197.13;5116392;28;20196;-70
2022/04/11 09:50:32;;;;;;;3.30;3.20;;;;;;;14.48;40.83;101189.56;5116594;28;20174;-70
2022/04/11 09:53:13;;;;;;;4.87;3.87;;;;;;;14.46;41.83;101186.16;5116205;28;20230;-70
2022/04/11 09:55:41;;;;;;;3.60;3.60;;;;;;;14.32;40.98;101195.56;5116089;28;20244;-69
2022/04/11 09:58:08;;;;;;;3.53;3.33;;;;;;;14.44;41.95;101193.25;5116123;28;20598;-69
2022/04/11 10:00:38;;;;;;;3.60;3.30;;;;;;;14.46;42.67;101187.00;5116273;28;20712;-69
2022/04/11 10:03:05;;;;;;;4.07;3.50;;;;;;;14.63;42.85;101180.88;5116629;28;20541;-69
2022/04/11 10:05:33;;;;;;;3.40;3.30;;;;;;;14.64;42.20;101185.22;5116095;28;20280;-69
2022/04/11 10:08:02;;;;;;;3.20;3.20;;;;;;;14.68;41.58;101180.66;5115957;28;20220;-69
2022/04/11 10:10:30;;;;;;;3.83;3.63;;;;;;;14.66;43.01;101179.91;5115973;28;20185;-69
2022/04/11 10:12:57;;;;;;;3.47;3.30;;;;;;;14.78;40.59;101169.56;5115921;28;20268;-69
2022/04/11 10:15:24;;;;;;;3.47;3.37;;;;;;;14.38;41.38;101177.75;5116236;28;20212;-69
2022/04/11 10:17:58;;;;;;;4.30;4.17;;;;;;;14.20;41.14;101159.28;5115379;28;20594;-69
2022/04/11 10:20:30;;;;;;;3.20;3.20;;;;;;;14.47;43.25;101157.09;5115976;28;20185;-69
2022/04/11 10:23:14;;;;;;;3.30;3.30;;;;;;;14.31;42.93;101156.97;5115966;28;20169;-69
2022/04/11 10:25:47;;;;;;;3.53;3.40;;;;;;;14.49;43.62;101157.84;5115775;28;20197;-70
2022/04/11 10:28:22;;;;;;;3.30;3.27;;;;;;;14.73;43.03;101155.78;5115898;28;20670;-70
2022/04/11 10:31:34;;;;;;;3.80;3.53;;;;;;;14.88;40.05;101154.13;5115534;28;20185;-70
2022/04/11 10:34:01;;;;;;;3.47;3.37;;;;;;;14.69;40.43;101148.94;5069439;28;20205;-70
2022/04/11 10:36:55;;;;;;;3.33;3.13;;;;;;;14.91;39.70;101143.41;5115712;28;20597;-70
2022/04/11 10:39:24;;;;;;;3.60;3.60;;;;;;;15.18;41.01;101148.16;5115670;28;20687;-70
2022/04/11 10:41:56;;;;;;;4.27;4.17;;;;;;;15.38;39.58;101137.38;5115255;28;20704;-70
2022/04/11 10:44:37;;;;;;;3.20;3.10;;;;;;;15.60;42.97;101137.06;5115459;28;20619;-70
2022/04/11 10:47:12;;;;;;;3.43;3.33;;;;;;;15.33;38.93;101147.34;5115242;28;20169;-69
2022/04/11 10:49:45;;;;;;;3.43;3.33;;;;;;;15.33;39.24;101140.25;5115501;28;20242;-69
2022/04/11 10:52:33;;;;;;;3.67;3.67;;;;;;;15.58;40.38;101138.94;5115396;28;20268;-70
2022/04/11 10:55:15;;;;;;;3.70;3.63;;;;;;;15.36;37.17;101136.63;5115044;28;20212;-69
2022/04/11 10:57:47;;;;;;;3.20;3.10;;;;;;;15.16;39.74;101124.50;5115559;28;20234;-70
2022/04/11 11:00:15;;;;;;;4.20;3.27;;;;;;;15.21;38.21;101124.25;5115124;28;20219;-70
2022/04/11 11:03:06;;;;;;;3.53;3.33;;;;;;;15.44;39.58;101118.59;5115170;28;20224;-70
2022/04/11 11:05:41;;;;;;;3.47;3.37;;;;;;;15.77;37.47;101120.28;5114904;28;20300;-70
2022/04/11 11:08:10;;;;;;;3.40;3.30;;;;;;;15.41;36.00;101118.72;5115343;28;20185;-69
2022/04/11 11:10:41;;;;;;;4.13;4.13;;;;;;;15.08;38.10;101116.16;5114763;28;20600;-69
2022/04/11 11:13:22;;;;;;;4.50;4.30;;;;;;;14.67;36.59;101121.81;5114679;28;20189;-69
2022/04/11 11:15:49;;;;;;;3.40;3.30;;;;;;;14.77;39.10;101106.38;5114784;28;20205;-69
2022/04/11 11:18:15;;;;;;;3.93;3.63;;;;;;;14.83;37.37;101106.06;5115039;28;20648;-69
2022/04/11 11:20:53;;;;;;;3.90;3.80;;;;;;;14.90;38.14;101102.16;5115146;28;20182;-69
2022/04/11 11:23:30;;;;;;;3.30;3.13;;;;;;;15.12;39.69;101097.44;5114841;28;20173;-69
2022/04/11 11:26:11;;;;;;;3.80;3.63;;;;;;;15.59;38.78;101090.47;5114596;28;20215;-70
2022/04/11 11:28:43;;;;;;;3.73;3.63;;;;;;;15.87;36.19;101098.56;5113461;28;20237;-70
2022/04/11 11:31:12;;;;;;;4.43;2.97;;;;;;;15.92;36.45;101082.44;5114928;28;20176;-70